createdAt,value
2018-11-10T00:02:04.074Z,99164.18
2018-11-10T00:05:07.101Z,99162.33
2018-11-10T00:08:10.114Z,99153.22
2018-11-10T00:11:13.081Z,99158.98
2018-11-10T00:14:16.102Z,99153.87
2018-11-10T00:17:19.073Z,99147.05
2018-11-10T00:20:22.093Z,99141.61
2018-11-10T00:23:25.127Z,99149.30
2018-11-10T00:26:28.345Z,99140.99
2018-11-10T00:29:31.331Z,99128.34
2018-11-10T00:32:34.328Z,99124.36
2018-11-10T00:35:37.310Z,99131.98
2018-11-10T00:38:40.230Z,99119.45
2018-11-10T00:41:43.298Z,99117.19
2018-11-10T00:44:46.348Z,99109.35
2018-11-10T00:47:49.353Z,99109.75
2018-11-10T00:50:52.402Z,99114.42
2018-11-10T00:53:55.358Z,99108.25
2018-11-10T00:56:58.318Z,99104.05
2018-11-10T01:00:01.397Z,99094.45
2018-11-10T01:03:04.781Z,99106.94
2018-11-10T01:06:07.820Z,99111.02
2018-11-10T01:09:10.783Z,99095.22
2018-11-10T01:12:13.654Z,99098.95
2018-11-10T01:15:16.674Z,99092.78
2018-11-10T01:18:19.590Z,99090.99
2018-11-10T01:21:22.588Z,99079.86
2018-11-10T01:24:25.510Z,99081.92
2018-11-10T01:27:28.504Z,99081.92
2018-11-10T01:30:31.472Z,99076.61
2018-11-10T01:33:34.444Z,99067.56
2018-11-10T01:36:37.374Z,99066.28
2018-11-10T01:39:40.296Z,99056.83
2018-11-10T01:42:43.562Z,99054.98
2018-11-10T01:45:46.493Z,99046.68
2018-11-10T01:48:49.394Z,99043.26
2018-11-10T01:51:52.352Z,99029.12
2018-11-10T01:58:12.354Z,99021.29
2018-11-10T02:01:15.359Z,99007.89
2018-11-10T02:04:18.282Z,98995.79
2018-11-10T02:07:21.252Z,98993.41
2018-11-10T02:10:24.151Z,98990.58
2018-11-10T02:13:27.108Z,98989.55
2018-11-10T02:16:30.068Z,98984.88
2018-11-10T02:19:32.998Z,98978.88
2018-11-10T02:22:35.995Z,98993.47
2018-11-10T02:25:39.006Z,98991.69
2018-11-10T02:28:41.958Z,98989.66
2018-11-10T02:31:44.881Z,98988.44
2018-11-10T02:34:47.973Z,98996.41
2018-11-10T02:37:50.877Z,98972.14
2018-11-10T02:40:53.801Z,98979.17
2018-11-10T02:43:56.728Z,98969.41
2018-11-10T02:46:59.621Z,98955.89
2018-11-10T02:50:02.524Z,98955.96
2018-11-10T02:53:05.466Z,98945.28
2018-11-10T02:56:08.425Z,98938.80
2018-11-10T02:59:11.383Z,98936.78
2018-11-10T03:02:14.257Z,98932.33
2018-11-10T03:05:17.184Z,98934.11
2018-11-10T03:08:20.128Z,98931.23
2018-11-10T03:11:23.009Z,98929.66
2018-11-10T03:14:25.890Z,98910.49
2018-11-10T03:17:28.792Z,98910.89
2018-11-10T03:20:31.732Z,98908.80
2018-11-10T03:23:34.645Z,98913.38
2018-11-10T03:26:37.607Z,98919.33
2018-11-10T03:29:40.519Z,98912.22
2018-11-10T03:32:43.446Z,98909.16
2018-11-10T03:35:46.368Z,98910.72
2018-11-10T03:38:49.262Z,98907.38
2018-11-10T03:41:52.170Z,98910.56
2018-11-10T03:44:55.163Z,98898.53
2018-11-10T03:47:58.065Z,98899.08
2018-11-10T03:51:01.033Z,98900.69
2018-11-10T03:54:05.105Z,98894.30
2018-11-10T03:57:08.507Z,98892.14
2018-11-10T04:00:12.773Z,98885.17
2018-11-10T04:03:15.693Z,98893.19
2018-11-10T04:06:18.626Z,98880.94
2018-11-10T04:09:21.531Z,98873.64
2018-11-10T04:12:24.518Z,98885.64
2018-11-10T04:15:27.460Z,98874.97
2018-11-10T04:18:30.382Z,98873.77
2018-11-10T04:21:33.292Z,98866.48
2018-11-10T04:24:36.630Z,98857.37
2018-11-10T04:27:39.561Z,98855.88
2018-11-10T04:30:42.609Z,98845.20
2018-11-10T04:33:45.517Z,98844.05
2018-11-10T04:36:48.441Z,98844.59
2018-11-10T04:39:51.374Z,98842.92
2018-11-10T04:42:54.296Z,98837.82
2018-11-10T04:45:57.213Z,98822.22
2018-11-10T04:49:00.169Z,98821.16
2018-11-10T04:52:03.328Z,98812.83
2018-11-10T04:55:07.182Z,98818.42
2018-11-10T04:58:10.074Z,98805.21
2018-11-10T05:01:13.116Z,98792.96
2018-11-10T05:04:16.077Z,98800.28
2018-11-10T05:07:19.047Z,98804.91
2018-11-10T05:10:21.978Z,98803.73
2018-11-10T05:13:24.921Z,98811.58
2018-11-10T05:16:27.853Z,98799.72
2018-11-10T05:19:30.791Z,98801.25
2018-11-10T05:22:33.696Z,98811.42
2018-11-10T05:25:36.658Z,98801.66
2018-11-10T05:28:39.582Z,98810.77
2018-11-10T05:31:42.529Z,98801.45
2018-11-10T05:34:45.469Z,98808.23
2018-11-10T05:37:48.396Z,98804.91
2018-11-10T05:40:51.321Z,98805.06
2018-11-10T05:43:54.280Z,98801.28
2018-11-10T05:46:57.192Z,98804.78
2018-11-10T05:50:00.099Z,98798.08
2018-11-10T05:53:03.032Z,98789.87
2018-11-10T05:56:07.211Z,98808.18
2018-11-10T05:59:10.967Z,98806.96
2018-11-10T06:02:14.714Z,98805.97
2018-11-10T06:05:17.622Z,98801.20
2018-11-10T06:08:20.610Z,98801.59
2018-11-10T06:11:23.638Z,98821.09
2018-11-10T06:14:26.557Z,98825.40
2018-11-10T06:17:29.435Z,98828.77
2018-11-10T06:20:32.341Z,98829.39
2018-11-10T06:23:35.264Z,98828.75
2018-11-10T06:26:38.181Z,98835.94
2018-11-10T06:29:41.289Z,98832.60
2018-11-10T06:32:44.316Z,98832.64
2018-11-10T06:35:47.173Z,98829.98
2018-11-10T06:38:50.133Z,98861.92
2018-11-10T06:41:53.045Z,98841.00
2018-11-10T06:44:55.953Z,98848.02
2018-11-10T06:47:58.937Z,98854.33
2018-11-10T06:51:01.936Z,98853.00
2018-11-10T06:54:04.898Z,98854.05
2018-11-10T06:57:07.845Z,98843.34
2018-11-10T07:00:12.948Z,98834.27
2018-11-10T07:03:15.928Z,98842.48
2018-11-10T07:06:18.757Z,98848.41
2018-11-10T07:09:21.717Z,98848.73
2018-11-10T07:12:24.567Z,98847.72
2018-11-10T07:15:27.588Z,98849.22
2018-11-10T07:18:31.289Z,98846.45
2018-11-10T07:21:34.270Z,98870.21
2018-11-10T07:24:37.237Z,98860.20
2018-11-10T07:27:40.089Z,98868.09
2018-11-10T07:30:43.005Z,98874.58
2018-11-10T07:33:46.064Z,98868.27
2018-11-10T07:36:48.980Z,98879.88
2018-11-10T07:39:51.860Z,98871.84
2018-11-10T07:42:54.823Z,98875.20
2018-11-10T07:45:57.683Z,98889.57
2018-11-10T07:49:00.572Z,98891.67
2018-11-10T07:52:03.532Z,98881.29
2018-11-10T07:55:07.613Z,98884.03
2018-11-10T07:58:10.497Z,98884.03
2018-11-10T08:01:13.441Z,98881.52
2018-11-10T08:04:16.403Z,98884.40
2018-11-10T08:07:19.334Z,98874.35
2018-11-10T08:10:22.265Z,98867.39
2018-11-10T08:13:25.221Z,98864.20
2018-11-10T08:16:28.140Z,98876.22
2018-11-10T08:19:31.066Z,98861.61
2018-11-10T08:22:33.965Z,98873.16
2018-11-10T08:25:36.860Z,98861.92
2018-11-10T08:28:39.803Z,98871.68
2018-11-10T08:31:42.753Z,98871.78
2018-11-10T08:34:45.728Z,98868.95
2018-11-10T08:37:48.663Z,98878.31
2018-11-10T08:40:51.562Z,98865.61
2018-11-10T08:43:54.500Z,98877.23
2018-11-10T08:46:57.364Z,98892.92
2018-11-10T08:50:00.304Z,98873.00
2018-11-10T08:53:03.277Z,98861.68
2018-11-10T08:56:06.822Z,98874.35
2018-11-10T08:59:09.787Z,98877.77
2018-11-10T09:02:12.626Z,98879.34
2018-11-10T09:05:15.541Z,98874.35
2018-11-10T09:08:18.465Z,98884.27
2018-11-10T09:11:21.405Z,98891.20
2018-11-10T09:14:24.344Z,98890.05
2018-11-10T09:17:27.256Z,98901.67
2018-11-10T09:20:30.191Z,98889.98
2018-11-10T09:23:33.161Z,98906.13
2018-11-10T09:26:36.086Z,98901.06
2018-11-10T09:29:38.985Z,98898.63
2018-11-10T09:32:42.206Z,98903.48
2018-11-10T09:35:45.137Z,98911.67
2018-11-10T09:38:48.192Z,98911.91
2018-11-10T09:41:51.195Z,98915.26
2018-11-10T09:44:54.108Z,98917.16
2018-11-10T09:47:56.972Z,98913.08
2018-11-10T09:50:59.998Z,98918.08
2018-11-10T09:54:02.918Z,98916.13
2018-11-10T09:57:06.181Z,98913.88
2018-11-10T10:00:13.561Z,98914.64
2018-11-10T10:03:16.513Z,98920.34
2018-11-10T10:06:19.402Z,98907.70
2018-11-10T10:09:22.281Z,98910.72
2018-11-10T10:12:25.180Z,98913.25
2018-11-10T10:15:28.102Z,98907.94
2018-11-10T10:18:31.036Z,98900.27
2018-11-10T10:21:34.001Z,98904.42
2018-11-10T10:24:36.930Z,98913.93
2018-11-10T10:27:39.945Z,98903.23
2018-11-10T10:30:42.782Z,98905.36
2018-11-10T10:33:45.687Z,98898.33
2018-11-10T10:36:48.641Z,98897.26
2018-11-10T10:39:51.596Z,98900.28
2018-11-10T10:42:54.625Z,98865.27
2018-11-10T10:45:57.532Z,98891.92
2018-11-10T10:49:00.872Z,98892.31
2018-11-10T10:52:03.761Z,98895.05
2018-11-10T10:55:06.820Z,98895.29
2018-11-10T10:58:09.682Z,98888.73
2018-11-10T11:01:18.201Z,98885.92
2018-11-10T11:04:58.160Z,98892.45
2018-11-10T11:08:01.131Z,98866.77
2018-11-10T11:11:04.240Z,98905.67
2018-11-10T11:14:07.142Z,98900.28
2018-11-10T11:17:10.172Z,98894.26
2018-11-10T11:20:13.114Z,98893.08
2018-11-10T11:23:16.010Z,98890.89
2018-11-10T11:26:19.089Z,98887.69
2018-11-10T11:29:22.055Z,98889.23
2018-11-10T11:32:24.878Z,98881.37
2018-11-10T11:35:27.816Z,98884.42
2018-11-10T11:38:30.671Z,98879.72
2018-11-10T11:41:33.691Z,98885.42
2018-11-10T11:44:36.577Z,98878.24
2018-11-10T11:47:40.251Z,98876.52
2018-11-10T11:50:43.138Z,98870.02
2018-11-10T11:53:46.095Z,98872.86
2018-11-10T11:56:49.016Z,98869.45
2018-11-10T11:59:51.984Z,98865.71
2018-11-10T12:02:54.919Z,98855.55
2018-11-10T12:05:57.861Z,98858.92
2018-11-10T12:09:00.778Z,98868.91
2018-11-10T12:12:03.714Z,98863.05
2018-11-10T12:15:07.212Z,98871.16
2018-11-10T12:18:10.153Z,98859.02
2018-11-10T12:21:13.070Z,98853.89
2018-11-10T12:24:15.994Z,98847.39
2018-11-10T12:27:18.924Z,98850.98
2018-11-10T12:30:21.770Z,98840.06
2018-11-10T12:33:24.790Z,98836.63
2018-11-10T12:36:27.783Z,98841.53
2018-11-10T12:39:30.721Z,98841.00
2018-11-10T12:42:33.608Z,98843.58
2018-11-10T12:45:36.507Z,98843.84
2018-11-10T12:48:39.520Z,98843.19
2018-11-10T12:51:42.386Z,98850.77
2018-11-10T12:54:45.495Z,98846.03
2018-11-10T12:57:48.388Z,98845.49
2018-11-10T13:00:51.300Z,98844.92
2018-11-10T13:03:54.224Z,98843.58
2018-11-10T13:06:57.112Z,98839.53
2018-11-10T13:10:00.036Z,98831.09
2018-11-10T13:13:03.041Z,98832.75
2018-11-10T13:16:05.992Z,98831.88
2018-11-10T13:19:09.754Z,98818.78
2018-11-10T13:22:12.685Z,98813.14
2018-11-10T13:25:15.643Z,98801.77
2018-11-10T13:28:18.553Z,98807.50
2018-11-10T13:31:21.662Z,98805.49
2018-11-10T13:34:24.408Z,98806.31
2018-11-10T13:37:27.398Z,98803.59
2018-11-10T13:40:30.277Z,98802.98
2018-11-10T13:43:33.247Z,98802.98
2018-11-10T13:46:36.232Z,98795.14
2018-11-10T13:49:39.163Z,98799.28
2018-11-10T13:52:42.675Z,98797.48
2018-11-10T13:55:45.205Z,98788.91
2018-11-10T13:58:48.164Z,98788.97
2018-11-10T14:01:51.072Z,98779.66
2018-11-10T14:04:54.017Z,98785.96
2018-11-10T14:07:56.940Z,98774.94
2018-11-10T14:10:59.853Z,98789.58
2018-11-10T14:14:02.785Z,98783.73
2018-11-10T14:17:06.128Z,98785.05
2018-11-10T14:20:11.856Z,98780.06
2018-11-10T14:23:14.755Z,98782.39
2018-11-10T14:26:17.748Z,98776.20
2018-11-10T14:29:20.661Z,98772.22
2018-11-10T14:32:23.552Z,98770.63
2018-11-10T14:35:26.444Z,98768.59
2018-11-10T14:38:29.321Z,98767.05
2018-11-10T14:41:32.205Z,98763.06
2018-11-10T14:44:35.144Z,98755.88
2018-11-10T14:47:38.071Z,98760.34
2018-11-10T14:50:41.036Z,98745.33
2018-11-10T14:53:44.004Z,98746.39
2018-11-10T14:56:46.940Z,98739.47
2018-11-10T14:59:49.849Z,98742.41
2018-11-10T15:02:52.825Z,98739.83
2018-11-10T15:05:55.733Z,98730.63
2018-11-10T15:08:58.665Z,98740.69
2018-11-10T15:12:01.779Z,98743.81
2018-11-10T15:15:06.237Z,98761.22
2018-11-10T15:18:09.175Z,98761.72
2018-11-10T15:21:12.085Z,98760.15
2018-11-10T15:24:15.039Z,98761.09
2018-11-10T15:27:17.938Z,98761.80
2018-11-10T15:30:21.351Z,98752.42
2018-11-10T15:33:24.274Z,98758.35
2018-11-10T15:36:27.169Z,98769.45
2018-11-10T15:39:30.085Z,98767.19
2018-11-10T15:42:32.969Z,98757.94
2018-11-10T15:45:35.887Z,98761.14
2018-11-10T15:48:38.798Z,98756.22
2018-11-10T15:51:41.682Z,98761.34
2018-11-10T15:54:44.608Z,98764.38
2018-11-10T15:57:47.451Z,98763.98
2018-11-10T16:00:50.356Z,98760.00
2018-11-10T16:03:53.292Z,98760.52
2018-11-10T16:06:56.225Z,98756.68
2018-11-10T16:09:59.228Z,98754.60
2018-11-10T16:13:02.169Z,98755.02
2018-11-10T16:16:05.101Z,98762.00
2018-11-10T16:19:08.060Z,98768.18
2018-11-10T16:22:11.016Z,98776.34
2018-11-10T16:25:14.209Z,98772.38
2018-11-10T16:28:17.125Z,98784.20
2018-11-10T16:31:20.065Z,98765.59
2018-11-10T16:34:23.241Z,98772.71
2018-11-10T16:37:26.399Z,98766.17
2018-11-10T16:40:29.708Z,98772.42
2018-11-10T16:43:33.064Z,98761.09
2018-11-10T16:46:36.508Z,98779.14
2018-11-10T16:49:39.530Z,98782.27
2018-11-10T16:52:43.429Z,98781.13
2018-11-10T16:55:47.040Z,98789.63
2018-11-10T16:58:51.618Z,98782.41
2018-11-10T17:01:55.113Z,98792.64
2018-11-10T17:04:59.260Z,98791.09
2018-11-10T17:08:02.375Z,98795.08
2018-11-10T17:11:07.595Z,98789.58
2018-11-10T17:14:11.334Z,98777.09
2018-11-10T17:17:16.768Z,98780.95
2018-11-10T17:20:20.011Z,98780.20
2018-11-10T17:23:24.132Z,98787.31
2018-11-10T17:26:29.523Z,98784.66
2018-11-10T17:29:33.483Z,98780.20
2018-11-10T17:32:37.193Z,98784.26
2018-11-10T17:35:40.771Z,98788.64
2018-11-10T17:38:44.488Z,98787.59
2018-11-10T17:41:48.571Z,98790.36
2018-11-10T17:44:54.153Z,98792.29
2018-11-10T17:47:57.442Z,98789.05
2018-11-10T17:51:01.109Z,98800.86
2018-11-10T17:54:06.221Z,98806.86
2018-11-10T17:57:10.661Z,98799.69
2018-11-10T18:00:14.466Z,98798.95
2018-11-10T18:03:17.792Z,98800.21
2018-11-10T18:06:21.537Z,98807.44
2018-11-10T18:09:25.597Z,98800.40
2018-11-10T18:12:29.192Z,98810.09
2018-11-10T18:15:33.407Z,98803.52
2018-11-10T18:18:36.576Z,98807.30
2018-11-10T18:21:40.123Z,98807.52
2018-11-10T18:24:43.336Z,98806.47
2018-11-10T18:27:46.634Z,98801.62
2018-11-10T18:30:50.213Z,98805.61
2018-11-10T18:33:53.825Z,98794.61
2018-11-10T18:36:57.925Z,98794.77
2018-11-10T18:40:01.550Z,98792.29
2018-11-10T18:43:05.590Z,98789.70
2018-11-10T18:46:08.536Z,98794.20
2018-11-10T18:49:11.837Z,98795.88
2018-11-10T18:52:15.902Z,98797.99
2018-11-10T18:55:20.676Z,98795.49
2018-11-10T18:58:25.045Z,98793.69
2018-11-10T19:01:29.531Z,98802.25
2018-11-10T19:04:33.198Z,98806.11
2018-11-10T19:07:37.606Z,98809.78
2018-11-10T19:10:41.093Z,98816.42
2018-11-10T19:13:44.897Z,98823.12
2018-11-10T19:16:48.919Z,98818.69
2018-11-10T19:19:52.876Z,98826.06
2018-11-10T19:22:56.373Z,98826.93
2018-11-10T19:25:59.740Z,98826.48
2018-11-10T19:29:05.102Z,98840.02
2018-11-10T19:32:09.348Z,98842.92
2018-11-10T19:35:13.054Z,98843.33
2018-11-10T19:38:16.726Z,98849.30
2018-11-10T19:41:20.168Z,98846.24
2018-11-10T19:44:24.925Z,98846.57
2018-11-10T19:47:28.196Z,98842.83
2018-11-10T19:50:31.976Z,98842.80
2018-11-10T19:53:35.544Z,98845.56
2018-11-10T19:56:39.025Z,98848.05
2018-11-10T19:59:43.669Z,98855.73
2018-11-10T20:02:49.152Z,98847.22
2018-11-10T20:05:53.039Z,98850.48
2018-11-10T20:08:56.787Z,98850.34
2018-11-10T20:12:00.735Z,98843.41
2018-11-10T20:15:04.450Z,98847.76
2018-11-10T20:18:07.896Z,98849.38
2018-11-10T20:21:11.145Z,98836.66
2018-11-10T20:24:14.603Z,98829.95
2018-11-10T20:27:19.284Z,98828.05
2018-11-10T20:30:22.753Z,98820.46
2018-11-10T20:33:28.325Z,98820.14
2018-11-10T20:36:32.430Z,98830.02
2018-11-10T20:39:35.761Z,98828.69
2018-11-10T20:42:39.815Z,98832.92
2018-11-10T20:45:43.212Z,98834.83
2018-11-10T20:48:46.724Z,98843.02
2018-11-10T20:51:50.184Z,98837.09
2018-11-10T20:54:53.620Z,98837.34
2018-11-10T20:57:57.157Z,98838.88
2018-11-10T21:01:00.687Z,98845.92
2018-11-10T21:04:05.329Z,98850.91
2018-11-10T21:07:08.468Z,98850.77
2018-11-10T21:10:14.660Z,98859.81
2018-11-10T21:13:18.158Z,98852.63
2018-11-10T21:16:23.029Z,98860.58
2018-11-10T21:19:26.740Z,98853.32
2018-11-10T21:22:29.801Z,98858.81
2018-11-10T21:25:33.368Z,98864.34
2018-11-10T21:28:36.759Z,98868.69
2018-11-10T21:31:40.130Z,98870.34
2018-11-10T21:34:43.207Z,98878.88
2018-11-10T21:37:46.456Z,98871.45
2018-11-10T21:40:49.621Z,98885.52
2018-11-10T21:43:53.314Z,98878.80
2018-11-10T21:46:56.574Z,98873.56
2018-11-10T21:49:59.995Z,98866.16
2018-11-10T21:53:03.621Z,98878.34
2018-11-10T21:56:06.811Z,98885.52
2018-11-10T21:59:10.237Z,98871.38
2018-11-10T22:02:13.530Z,98871.23
2018-11-10T22:05:17.952Z,98886.55
2018-11-10T22:08:22.002Z,98890.30
2018-11-10T22:11:26.993Z,98889.83
2018-11-10T22:14:31.276Z,98894.03
2018-11-10T22:17:34.741Z,98894.50
2018-11-10T22:20:39.902Z,98889.98
2018-11-10T22:23:43.729Z,98894.11
2018-11-10T22:26:47.336Z,98887.86
2018-11-10T22:29:51.087Z,98891.77
2018-11-10T22:32:55.353Z,98893.27
2018-11-10T22:35:59.457Z,98900.60
2018-11-10T22:39:02.485Z,98905.27
2018-11-10T22:42:05.714Z,98903.26
